sensor_id;sensor_type;location;lat;lon;timestamp;P1;durP1;ratioP1;P2;durP2;ratioP2
48873;SDS011;66155;46.204;5.220;2022-12-29T00:02:20;9.27;;;5.57;;
48873;SDS011;66155;46.204;5.220;2022-12-29T00:07:21;8.65;;;4.95;;
48873;SDS011;66155;46.204;5.220;2022-12-29T00:12:21;9.15;;;4.18;;
48873;SDS011;66155;46.204;5.220;2022-12-29T00:17:22;8.18;;;5.10;;
48873;SDS011;66155;46.204;5.220;2022-12-29T00:22:22;7.10;;;3.95;;
48873;SDS011;66155;46.204;5.220;2022-12-29T00:27:41;9.00;;;4.88;;
48873;SDS011;66155;46.204;5.220;2022-12-29T00:33:00;9.68;;;5.20;;
48873;SDS011;66155;46.204;5.220;2022-12-29T00:38:35;8.68;;;5.40;;
48873;SDS011;66155;46.204;5.220;2022-12-29T00:43:57;11.50;;;7.32;;
48873;SDS011;66155;46.204;5.220;2022-12-29T00:49:07;7.80;;;5.13;;
48873;SDS011;66155;46.204;5.220;2022-12-29T00:54:29;9.27;;;5.13;;
48873;SDS011;66155;46.204;5.220;2022-12-29T00:59:31;9.50;;;4.50;;
48873;SDS011;66155;46.204;5.220;2022-12-29T01:04:31;6.82;;;4.60;;
48873;SDS011;66155;46.204;5.220;2022-12-29T01:09:32;6.70;;;4.50;;
48873;SDS011;66155;46.204;5.220;2022-12-29T01:14:51;8.32;;;5.47;;
48873;SDS011;66155;46.204;5.220;2022-12-29T01:19:52;11.40;;;4.90;;
48873;SDS011;66155;46.204;5.220;2022-12-29T01:24:52;8.50;;;4.45;;
48873;SDS011;66155;46.204;5.220;2022-12-29T01:29:53;7.72;;;5.07;;
48873;SDS011;66155;46.204;5.220;2022-12-29T01:34:53;6.22;;;4.20;;
48873;SDS011;66155;46.204;5.220;2022-12-29T01:39:53;8.95;;;4.50;;
48873;SDS011;66155;46.204;5.220;2022-12-29T01:49:55;9.02;;;5.00;;
48873;SDS011;66155;46.204;5.220;2022-12-29T01:54:58;9.48;;;5.43;;
48873;SDS011;66155;46.204;5.220;2022-12-29T02:00:04;8.23;;;4.30;;
48873;SDS011;66155;46.204;5.220;2022-12-29T02:05:14;5.95;;;4.38;;
48873;SDS011;66155;46.204;5.220;2022-12-29T02:10:21;5.63;;;4.05;;
48873;SDS011;66155;46.204;5.220;2022-12-29T02:15:34;9.35;;;4.45;;
48873;SDS011;66155;46.204;5.220;2022-12-29T02:36:32;7.63;;;4.07;;
48873;SDS011;66155;46.204;5.220;2022-12-29T02:46:51;9.40;;;4.22;;
48873;SDS011;66155;46.204;5.220;2022-12-29T02:52:14;8.88;;;4.55;;
48873;SDS011;66155;46.204;5.220;2022-12-29T03:07:43;5.88;;;3.92;;
48873;SDS011;66155;46.204;5.220;2022-12-29T03:12:55;6.90;;;4.50;;
48873;SDS011;66155;46.204;5.220;2022-12-29T03:19:07;6.13;;;4.20;;
48873;SDS011;66155;46.204;5.220;2022-12-29T03:23:47;6.95;;;3.88;;
48873;SDS011;66155;46.204;5.220;2022-12-29T03:28:53;11.65;;;5.18;;
48873;SDS011;66155;46.204;5.220;2022-12-29T03:33:57;9.20;;;3.60;;
48873;SDS011;66155;46.204;5.220;2022-12-29T03:39:02;6.93;;;3.85;;
48873;SDS011;66155;46.204;5.220;2022-12-29T03:44:08;6.07;;;3.30;;
48873;SDS011;66155;46.204;5.220;2022-12-29T03:49:10;6.75;;;3.80;;
48873;SDS011;66155;46.204;5.220;2022-12-29T03:54:10;6.57;;;3.47;;
48873;SDS011;66155;46.204;5.220;2022-12-29T03:59:11;5.78;;;3.35;;
48873;SDS011;66155;46.204;5.220;2022-12-29T04:04:11;5.33;;;3.40;;
48873;SDS011;66155;46.204;5.220;2022-12-29T04:09:11;5.00;;;3.42;;
48873;SDS011;66155;46.204;5.220;2022-12-29T04:14:12;6.30;;;4.05;;
48873;SDS011;66155;46.204;5.220;2022-12-29T04:19:12;5.10;;;3.47;;
48873;SDS011;66155;46.204;5.220;2022-12-29T04:24:13;7.15;;;4.03;;
48873;SDS011;66155;46.204;5.220;2022-12-29T04:29:14;6.53;;;3.80;;
48873;SDS011;66155;46.204;5.220;2022-12-29T04:34:15;5.35;;;3.30;;
48873;SDS011;66155;46.204;5.220;2022-12-29T04:39:16;7.68;;;3.55;;
48873;SDS011;66155;46.204;5.220;2022-12-29T04:44:16;4.65;;;3.45;;
48873;SDS011;66155;46.204;5.220;2022-12-29T04:49:16;9.73;;;3.37;;
48873;SDS011;66155;46.204;5.220;2022-12-29T04:54:17;4.53;;;3.00;;
48873;SDS011;66155;46.204;5.220;2022-12-29T04:59:17;3.88;;;3.35;;
48873;SDS011;66155;46.204;5.220;2022-12-29T05:04:18;3.95;;;3.00;;
48873;SDS011;66155;46.204;5.220;2022-12-29T05:09:18;4.68;;;3.47;;
48873;SDS011;66155;46.204;5.220;2022-12-29T05:14:18;6.45;;;3.20;;
48873;SDS011;66155;46.204;5.220;2022-12-29T05:19:19;7.15;;;3.22;;
48873;SDS011;66155;46.204;5.220;2022-12-29T05:24:19;5.47;;;3.00;;
48873;SDS011;66155;46.204;5.220;2022-12-29T05:29:20;6.22;;;2.95;;
48873;SDS011;66155;46.204;5.220;2022-12-29T05:34:20;6.22;;;2.85;;
48873;SDS011;66155;46.204;5.220;2022-12-29T05:39:21;4.68;;;2.85;;
48873;SDS011;66155;46.204;5.220;2022-12-29T05:44:21;4.72;;;2.90;;
48873;SDS011;66155;46.204;5.220;2022-12-29T05:49:22;6.63;;;2.72;;
48873;SDS011;66155;46.204;5.220;2022-12-29T05:54:23;4.35;;;3.20;;
48873;SDS011;66155;46.204;5.220;2022-12-29T05:59:23;4.75;;;3.15;;
48873;SDS011;66155;46.204;5.220;2022-12-29T06:04:24;6.70;;;2.88;;
48873;SDS011;66155;46.204;5.220;2022-12-29T06:09:24;6.88;;;3.00;;
48873;SDS011;66155;46.204;5.220;2022-12-29T06:14:25;6.43;;;2.60;;
48873;SDS011;66155;46.204;5.220;2022-12-29T06:19:25;4.40;;;2.58;;
48873;SDS011;66155;46.204;5.220;2022-12-29T06:24:26;4.57;;;2.80;;
48873;SDS011;66155;46.204;5.220;2022-12-29T06:29:26;6.22;;;2.92;;
48873;SDS011;66155;46.204;5.220;2022-12-29T06:34:27;3.70;;;2.70;;
48873;SDS011;66155;46.204;5.220;2022-12-29T06:39:28;4.05;;;2.80;;
48873;SDS011;66155;46.204;5.220;2022-12-29T06:44:28;4.28;;;2.47;;
48873;SDS011;66155;46.204;5.220;2022-12-29T06:49:29;4.47;;;3.20;;
48873;SDS011;66155;46.204;5.220;2022-12-29T06:54:30;5.57;;;2.67;;
48873;SDS011;66155;46.204;5.220;2022-12-29T06:59:31;5.32;;;3.00;;
48873;SDS011;66155;46.204;5.220;2022-12-29T07:04:31;4.03;;;2.67;;
48873;SDS011;66155;46.204;5.220;2022-12-29T07:09:32;5.68;;;2.80;;
48873;SDS011;66155;46.204;5.220;2022-12-29T07:14:33;3.35;;;2.78;;
48873;SDS011;66155;46.204;5.220;2022-12-29T07:19:33;4.30;;;3.00;;
48873;SDS011;66155;46.204;5.220;2022-12-29T07:24:33;2.95;;;2.50;;
48873;SDS011;66155;46.204;5.220;2022-12-29T07:29:36;6.78;;;3.65;;
48873;SDS011;66155;46.204;5.220;2022-12-29T07:34:40;4.90;;;3.22;;
48873;SDS011;66155;46.204;5.220;2022-12-29T07:39:40;4.05;;;2.83;;
48873;SDS011;66155;46.204;5.220;2022-12-29T07:44:41;3.70;;;2.75;;
48873;SDS011;66155;46.204;5.220;2022-12-29T07:49:41;3.03;;;2.78;;
48873;SDS011;66155;46.204;5.220;2022-12-29T07:54:41;8.27;;;3.72;;
48873;SDS011;66155;46.204;5.220;2022-12-29T07:59:42;5.78;;;3.45;;
48873;SDS011;66155;46.204;5.220;2022-12-29T08:04:43;4.88;;;3.60;;
48873;SDS011;66155;46.204;5.220;2022-12-29T08:09:43;5.18;;;3.15;;
48873;SDS011;66155;46.204;5.220;2022-12-29T08:14:44;3.88;;;2.97;;
48873;SDS011;66155;46.204;5.220;2022-12-29T08:19:44;5.97;;;3.22;;
48873;SDS011;66155;46.204;5.220;2022-12-29T08:24:45;4.35;;;2.78;;
48873;SDS011;66155;46.204;5.220;2022-12-29T08:29:45;4.18;;;2.80;;
48873;SDS011;66155;46.204;5.220;2022-12-29T08:34:46;3.70;;;2.85;;
48873;SDS011;66155;46.204;5.220;2022-12-29T08:39:46;4.47;;;3.25;;
48873;SDS011;66155;46.204;5.220;2022-12-29T08:44:47;3.35;;;3.05;;
48873;SDS011;66155;46.204;5.220;2022-12-29T08:49:47;5.25;;;2.80;;
48873;SDS011;66155;46.204;5.220;2022-12-29T08:54:47;4.10;;;2.47;;
48873;SDS011;66155;46.204;5.220;2022-12-29T08:59:48;3.53;;;2.90;;
48873;SDS011;66155;46.204;5.220;2022-12-29T09:04:48;6.90;;;3.60;;
48873;SDS011;66155;46.204;5.220;2022-12-29T09:09:49;3.67;;;3.25;;
48873;SDS011;66155;46.204;5.220;2022-12-29T09:14:49;3.50;;;2.85;;
48873;SDS011;66155;46.204;5.220;2022-12-29T09:19:49;7.63;;;3.40;;
48873;SDS011;66155;46.204;5.220;2022-12-29T09:24:50;3.25;;;2.88;;
48873;SDS011;66155;46.204;5.220;2022-12-29T09:29:50;9.77;;;3.40;;
48873;SDS011;66155;46.204;5.220;2022-12-29T09:34:51;6.07;;;4.85;;
48873;SDS011;66155;46.204;5.220;2022-12-29T09:39:51;4.90;;;3.10;;
48873;SDS011;66155;46.204;5.220;2022-12-29T09:55:39;5.82;;;3.13;;
48873;SDS011;66155;46.204;5.220;2022-12-29T10:00:47;3.75;;;2.63;;
48873;SDS011;66155;46.204;5.220;2022-12-29T10:16:28;5.50;;;3.30;;
48873;SDS011;66155;46.204;5.220;2022-12-29T10:26:56;4.43;;;2.65;;
48873;SDS011;66155;46.204;5.220;2022-12-29T10:31:59;3.63;;;2.70;;
48873;SDS011;66155;46.204;5.220;2022-12-29T10:37:02;4.95;;;3.97;;
48873;SDS011;66155;46.204;5.220;2022-12-29T10:42:26;7.32;;;3.05;;
48873;SDS011;66155;46.204;5.220;2022-12-29T10:47:29;8.68;;;3.40;;
48873;SDS011;66155;46.204;5.220;2022-12-29T10:52:35;5.10;;;4.47;;
48873;SDS011;66155;46.204;5.220;2022-12-29T10:57:40;6.57;;;3.70;;
48873;SDS011;66155;46.204;5.220;2022-12-29T11:02:51;4.90;;;3.55;;
48873;SDS011;66155;46.204;5.220;2022-12-29T11:08:02;4.43;;;3.42;;
48873;SDS011;66155;46.204;5.220;2022-12-29T11:23:36;5.40;;;3.05;;
48873;SDS011;66155;46.204;5.220;2022-12-29T11:28:39;5.53;;;3.13;;
48873;SDS011;66155;46.204;5.220;2022-12-29T11:33:41;5.70;;;2.78;;
48873;SDS011;66155;46.204;5.220;2022-12-29T11:38:42;7.25;;;3.63;;
48873;SDS011;66155;46.204;5.220;2022-12-29T11:43:48;8.25;;;2.95;;
48873;SDS011;66155;46.204;5.220;2022-12-29T11:48:49;8.82;;;3.35;;
48873;SDS011;66155;46.204;5.220;2022-12-29T11:53:50;5.18;;;3.15;;
48873;SDS011;66155;46.204;5.220;2022-12-29T12:04:01;4.25;;;2.60;;
48873;SDS011;66155;46.204;5.220;2022-12-29T12:09:06;7.00;;;3.03;;
48873;SDS011;66155;46.204;5.220;2022-12-29T12:14:18;8.27;;;3.05;;
48873;SDS011;66155;46.204;5.220;2022-12-29T12:35:03;6.32;;;3.17;;
48873;SDS011;66155;46.204;5.220;2022-12-29T12:45:24;6.20;;;3.28;;
48873;SDS011;66155;46.204;5.220;2022-12-29T12:56:11;6.13;;;3.60;;
48873;SDS011;66155;46.204;5.220;2022-12-29T13:22:24;8.00;;;3.20;;
48873;SDS011;66155;46.204;5.220;2022-12-29T13:27:35;5.10;;;3.85;;
48873;SDS011;66155;46.204;5.220;2022-12-29T13:33:21;8.00;;;3.95;;
48873;SDS011;66155;46.204;5.220;2022-12-29T13:38:29;5.32;;;4.30;;
48873;SDS011;66155;46.204;5.220;2022-12-29T13:43:37;4.00;;;3.60;;
48873;SDS011;66155;46.204;5.220;2022-12-29T13:48:43;4.15;;;3.33;;
48873;SDS011;66155;46.204;5.220;2022-12-29T13:54:05;4.85;;;3.58;;
48873;SDS011;66155;46.204;5.220;2022-12-29T13:59:14;7.38;;;3.92;;
48873;SDS011;66155;46.204;5.220;2022-12-29T14:04:24;6.30;;;3.00;;
48873;SDS011;66155;46.204;5.220;2022-12-29T14:14:50;6.10;;;3.42;;
48873;SDS011;66155;46.204;5.220;2022-12-29T14:19:52;8.93;;;3.53;;
48873;SDS011;66155;46.204;5.220;2022-12-29T14:24:54;8.32;;;4.55;;
48873;SDS011;66155;46.204;5.220;2022-12-29T14:29:54;5.75;;;3.45;;
48873;SDS011;66155;46.204;5.220;2022-12-29T14:34:55;7.63;;;3.67;;
48873;SDS011;66155;46.204;5.220;2022-12-29T14:40:02;5.75;;;3.88;;
48873;SDS011;66155;46.204;5.220;2022-12-29T14:50:15;8.48;;;4.18;;
48873;SDS011;66155;46.204;5.220;2022-12-29T15:00:40;7.85;;;4.00;;
48873;SDS011;66155;46.204;5.220;2022-12-29T15:05:43;12.90;;;4.07;;
48873;SDS011;66155;46.204;5.220;2022-12-29T15:10:47;6.97;;;4.30;;
48873;SDS011;66155;46.204;5.220;2022-12-29T15:15:52;9.48;;;4.63;;
48873;SDS011;66155;46.204;5.220;2022-12-29T15:20:54;9.70;;;5.40;;
48873;SDS011;66155;46.204;5.220;2022-12-29T15:31:04;10.25;;;5.43;;
48873;SDS011;66155;46.204;5.220;2022-12-29T15:36:10;12.15;;;6.80;;
48873;SDS011;66155;46.204;5.220;2022-12-29T15:46:32;6.00;;;4.30;;
48873;SDS011;66155;46.204;5.220;2022-12-29T15:51:34;6.53;;;3.97;;
48873;SDS011;66155;46.204;5.220;2022-12-29T15:56:37;5.43;;;3.08;;
48873;SDS011;66155;46.204;5.220;2022-12-29T16:01:38;4.25;;;3.20;;
48873;SDS011;66155;46.204;5.220;2022-12-29T16:06:39;5.15;;;2.88;;
48873;SDS011;66155;46.204;5.220;2022-12-29T16:11:54;4.10;;;2.92;;
48873;SDS011;66155;46.204;5.220;2022-12-29T16:16:59;4.07;;;2.63;;
48873;SDS011;66155;46.204;5.220;2022-12-29T16:22:08;4.70;;;2.03;;
48873;SDS011;66155;46.204;5.220;2022-12-29T16:27:18;4.03;;;2.53;;
48873;SDS011;66155;46.204;5.220;2022-12-29T16:32:23;3.83;;;3.10;;
48873;SDS011;66155;46.204;5.220;2022-12-29T16:37:30;3.17;;;2.30;;
48873;SDS011;66155;46.204;5.220;2022-12-29T16:42:45;5.45;;;2.30;;
48873;SDS011;66155;46.204;5.220;2022-12-29T16:58:31;4.03;;;2.70;;
48873;SDS011;66155;46.204;5.220;2022-12-29T17:03:44;5.30;;;2.88;;
48873;SDS011;66155;46.204;5.220;2022-12-29T17:08:48;4.40;;;2.80;;
48873;SDS011;66155;46.204;5.220;2022-12-29T17:13:49;6.28;;;3.30;;
48873;SDS011;66155;46.204;5.220;2022-12-29T17:18:50;4.97;;;3.17;;
48873;SDS011;66155;46.204;5.220;2022-12-29T17:23:50;5.07;;;2.55;;
48873;SDS011;66155;46.204;5.220;2022-12-29T17:28:50;4.35;;;2.88;;
48873;SDS011;66155;46.204;5.220;2022-12-29T17:33:51;4.88;;;3.00;;
48873;SDS011;66155;46.204;5.220;2022-12-29T17:38:54;4.30;;;2.95;;
48873;SDS011;66155;46.204;5.220;2022-12-29T17:43:54;3.65;;;2.75;;
48873;SDS011;66155;46.204;5.220;2022-12-29T17:48:55;5.50;;;3.45;;
48873;SDS011;66155;46.204;5.220;2022-12-29T17:53:55;6.18;;;3.10;;
48873;SDS011;66155;46.204;5.220;2022-12-29T17:58:55;5.13;;;2.67;;
48873;SDS011;66155;46.204;5.220;2022-12-29T18:03:56;5.15;;;2.47;;
48873;SDS011;66155;46.204;5.220;2022-12-29T18:08:56;4.13;;;2.42;;
48873;SDS011;66155;46.204;5.220;2022-12-29T18:13:57;4.63;;;2.33;;
48873;SDS011;66155;46.204;5.220;2022-12-29T18:18:57;2.53;;;2.00;;
48873;SDS011;66155;46.204;5.220;2022-12-29T18:23:58;3.83;;;2.22;;
48873;SDS011;66155;46.204;5.220;2022-12-29T18:28:58;2.90;;;2.40;;
48873;SDS011;66155;46.204;5.220;2022-12-29T18:33:59;2.55;;;2.00;;
48873;SDS011;66155;46.204;5.220;2022-12-29T18:39:01;2.35;;;1.90;;
48873;SDS011;66155;46.204;5.220;2022-12-29T18:44:01;3.22;;;2.20;;
48873;SDS011;66155;46.204;5.220;2022-12-29T18:49:01;3.70;;;2.03;;
48873;SDS011;66155;46.204;5.220;2022-12-29T18:54:02;3.30;;;2.20;;
48873;SDS011;66155;46.204;5.220;2022-12-29T18:59:02;2.75;;;2.10;;
48873;SDS011;66155;46.204;5.220;2022-12-29T19:04:03;3.65;;;2.50;;
48873;SDS011;66155;46.204;5.220;2022-12-29T19:09:06;5.68;;;2.50;;
48873;SDS011;66155;46.204;5.220;2022-12-29T19:14:11;3.13;;;2.47;;
48873;SDS011;66155;46.204;5.220;2022-12-29T19:19:18;3.55;;;2.83;;
48873;SDS011;66155;46.204;5.220;2022-12-29T19:24:18;2.35;;;2.15;;
48873;SDS011;66155;46.204;5.220;2022-12-29T19:29:18;4.35;;;2.80;;
48873;SDS011;66155;46.204;5.220;2022-12-29T19:34:19;5.70;;;3.10;;
48873;SDS011;66155;46.204;5.220;2022-12-29T19:39:19;4.07;;;2.92;;
48873;SDS011;66155;46.204;5.220;2022-12-29T19:44:20;3.00;;;2.25;;
48873;SDS011;66155;46.204;5.220;2022-12-29T19:49:20;3.17;;;2.10;;
48873;SDS011;66155;46.204;5.220;2022-12-29T19:54:22;2.90;;;2.00;;
48873;SDS011;66155;46.204;5.220;2022-12-29T19:59:23;2.22;;;1.75;;
48873;SDS011;66155;46.204;5.220;2022-12-29T20:04:23;2.72;;;1.85;;
48873;SDS011;66155;46.204;5.220;2022-12-29T20:09:23;2.92;;;2.25;;
48873;SDS011;66155;46.204;5.220;2022-12-29T20:14:24;3.08;;;1.80;;
48873;SDS011;66155;46.204;5.220;2022-12-29T20:19:24;2.00;;;1.80;;
48873;SDS011;66155;46.204;5.220;2022-12-29T20:24:25;2.17;;;1.98;;
48873;SDS011;66155;46.204;5.220;2022-12-29T20:29:25;3.90;;;2.55;;
48873;SDS011;66155;46.204;5.220;2022-12-29T20:34:26;3.10;;;2.15;;
48873;SDS011;66155;46.204;5.220;2022-12-29T20:39:26;2.85;;;2.40;;
48873;SDS011;66155;46.204;5.220;2022-12-29T20:44:27;2.97;;;1.98;;
48873;SDS011;66155;46.204;5.220;2022-12-29T20:49:29;3.45;;;2.45;;
48873;SDS011;66155;46.204;5.220;2022-12-29T20:54:30;4.75;;;2.70;;
48873;SDS011;66155;46.204;5.220;2022-12-29T20:59:31;3.38;;;2.70;;
48873;SDS011;66155;46.204;5.220;2022-12-29T21:04:31;3.00;;;2.03;;
48873;SDS011;66155;46.204;5.220;2022-12-29T21:09:32;2.53;;;2.08;;
48873;SDS011;66155;46.204;5.220;2022-12-29T21:14:33;4.68;;;2.33;;
48873;SDS011;66155;46.204;5.220;2022-12-29T21:19:33;4.47;;;3.35;;
48873;SDS011;66155;46.204;5.220;2022-12-29T21:24:33;3.88;;;2.65;;
48873;SDS011;66155;46.204;5.220;2022-12-29T21:29:34;3.30;;;2.38;;
48873;SDS011;66155;46.204;5.220;2022-12-29T21:34:34;3.85;;;2.72;;
48873;SDS011;66155;46.204;5.220;2022-12-29T21:39:35;5.22;;;2.90;;
48873;SDS011;66155;46.204;5.220;2022-12-29T21:44:36;5.32;;;3.08;;
48873;SDS011;66155;46.204;5.220;2022-12-29T21:49:55;4.53;;;2.70;;
48873;SDS011;66155;46.204;5.220;2022-12-29T21:54:55;4.72;;;2.88;;
48873;SDS011;66155;46.204;5.220;2022-12-29T22:00:04;5.30;;;3.25;;
48873;SDS011;66155;46.204;5.220;2022-12-29T22:05:27;5.65;;;3.50;;
48873;SDS011;66155;46.204;5.220;2022-12-29T22:10:47;3.72;;;3.15;;
48873;SDS011;66155;46.204;5.220;2022-12-29T22:16:07;4.13;;;2.80;;
48873;SDS011;66155;46.204;5.220;2022-12-29T22:21:09;4.60;;;3.13;;
48873;SDS011;66155;46.204;5.220;2022-12-29T22:26:11;6.53;;;4.13;;
48873;SDS011;66155;46.204;5.220;2022-12-29T22:36:26;6.35;;;3.78;;
48873;SDS011;66155;46.204;5.220;2022-12-29T22:41:28;7.05;;;3.50;;
48873;SDS011;66155;46.204;5.220;2022-12-29T22:46:28;3.83;;;2.75;;
48873;SDS011;66155;46.204;5.220;2022-12-29T22:51:29;5.60;;;4.18;;
48873;SDS011;66155;46.204;5.220;2022-12-29T22:56:29;5.23;;;3.40;;
48873;SDS011;66155;46.204;5.220;2022-12-29T23:01:29;4.88;;;3.67;;
48873;SDS011;66155;46.204;5.220;2022-12-29T23:06:30;5.10;;;3.33;;
48873;SDS011;66155;46.204;5.220;2022-12-29T23:11:31;6.22;;;3.40;;
48873;SDS011;66155;46.204;5.220;2022-12-29T23:16:32;5.28;;;3.78;;
48873;SDS011;66155;46.204;5.220;2022-12-29T23:21:32;4.22;;;3.15;;
48873;SDS011;66155;46.204;5.220;2022-12-29T23:26:34;5.32;;;2.90;;
48873;SDS011;66155;46.204;5.220;2022-12-29T23:31:37;6.05;;;3.47;;
48873;SDS011;66155;46.204;5.220;2022-12-29T23:36:38;5.75;;;3.83;;
48873;SDS011;66155;46.204;5.220;2022-12-29T23:41:38;6.18;;;3.85;;
48873;SDS011;66155;46.204;5.220;2022-12-29T23:46:39;5.22;;;3.78;;
48873;SDS011;66155;46.204;5.220;2022-12-29T23:51:40;5.60;;;3.58;;
48873;SDS011;66155;46.204;5.220;2022-12-29T23:56:40;4.05;;;2.83;;
